KBGM/BGM METAR and TAF weather

Enter ICAO airport designator
Station Type Date Time Source
KBGM METAR 2019/08/22 09:53 UTC NOAA

KBGM 220953Z AUTO 25003KT 8SM CLR 18/18 A2990 RMK AO2 SLP115 T01830178 $


Station Type Date Time Source
KBGM Decoded METAR 2019/08/22 09:53 UTC NOAA

Station name not available
Aug 22, 2019 - 05:53 AM EDT / 2019.08.22 0953 UTC
Wind: from the WSW (250 degrees) at 3 MPH (3 KT):0
Visibility: 8 mile(s):0
Sky conditions: clear
Temperature: 64.9 F (18.3 C)
Dew Point: 64.0 F (17.8 C)
Relative Humidity: 96%
Pressure (altimeter): 29.9 in. Hg (1012 hPa)
ob: KBGM 220953Z AUTO 25003KT 8SM CLR 18/18 A2990 RMK AO2 SLP115 T01830178
cycle: 10

Station Type Date Time Source
KBGM TAF 2019/08/22 09:15 UTC NOAA

TAF
AMD KBGM 220912Z 2209/2306 25005KT P6SM SCT030 BKN200
TEMPO 2211/2214 BKN018
FM221500 28006KT P6SM SCT040 BKN060
FM230200 VRB04KT P6SM SCT050 BKN200

Example: see airport list